Time;durP1;ratioP1;P1;durP2;ratioP2;P2;SDS_P1;SDS_P2;PMS_P1;PMS_P2;Temp;Humidity;BMP_temperature;BMP_pressure;BME280_temperature;BME280_humidity;BME280_pressure;Samples;Min_cycle;Max_cycle;Signal;HPM_P1;HPM_P2
2021/05/20 00:00:21;;;;;;;7.50;3.50;;;;;;;;;;143736;574;45020;-60
2021/05/20 00:02:49;;;;;;;7.82;3.85;;;;;;;;;;143739;584;46022;-60
2021/05/20 00:05:16;;;;;;;5.47;2.67;;;;;;;;;;143734;644;46010;-60
2021/05/20 00:07:44;;;;;;;13.32;3.28;;;;;;;;;;143738;611;46020;-60
2021/05/20 00:10:13;;;;;;;4.30;2.33;;;;;;;;;;143737;589;46021;-61
2021/05/20 00:12:42;;;;;;;6.68;2.72;;;;;;;;;;143735;596;46020;-61
2021/05/20 00:15:10;;;;;;;9.13;3.62;;;;;;;;;;143735;610;46034;-60
2021/05/20 00:17:37;;;;;;;7.18;3.10;;;;;;;;;;143740;594;46020;-59
2021/05/20 00:20:05;;;;;;;7.45;3.17;;;;;;;;;;143742;569;45020;-60
2021/05/20 00:22:32;;;;;;;6.97;2.92;;;;;;;;;;143735;567;46020;-60
2021/05/20 00:24:59;;;;;;;6.53;3.05;;;;;;;;;;143736;595;46013;-60
2021/05/20 00:27:27;;;;;;;6.57;3.30;;;;;;;;;;143734;594;46020;-60
2021/05/20 00:29:55;;;;;;;6.47;3.53;;;;;;;;;;143738;591;45020;-60
2021/05/20 00:32:22;;;;;;;5.00;2.83;;;;;;;;;;143736;566;46021;-60
2021/05/20 00:34:50;;;;;;;5.80;2.45;;;;;;;;;;143735;601;46012;-59
2021/05/20 00:37:17;;;;;;;6.25;2.35;;;;;;;;;;143736;571;46020;-61
2021/05/20 00:39:45;;;;;;;6.43;2.83;;;;;;;;;;143739;624;46021;-61
2021/05/20 00:42:12;;;;;;;6.53;3.05;;;;;;;;;;143735;613;46020;-60
2021/05/20 00:45:00;;;;;;;10.88;3.62;;;;;;;;;;143735;565;46012;-60
2021/05/20 00:47:31;;;;;;;5.43;3.17;;;;;;;;;;143733;633;46023;-60
2021/05/20 00:49:58;;;;;;;9.48;3.37;;;;;;;;;;143738;736;45020;-60
2021/05/20 00:52:26;;;;;;;6.30;3.45;;;;;;;;;;143734;607;46020;-60
2021/05/20 00:54:58;;;;;;;8.48;3.40;;;;;;;;;;143735;637;46012;-60
2021/05/20 00:57:26;;;;;;;7.20;2.90;;;;;;;;;;143736;638;46020;-59
2021/05/20 00:59:53;;;;;;;9.27;3.08;;;;;;;;;;143743;613;45020;-60
2021/05/20 01:02:21;;;;;;;4.87;2.65;;;;;;;;;;143735;566;46021;-60
2021/05/20 01:04:48;;;;;;;7.68;2.75;;;;;;;;;;143735;564;46012;-60
2021/05/20 01:07:16;;;;;;;6.12;2.95;;;;;;;;;;143740;569;46020;-61
2021/05/20 01:09:43;;;;;;;7.10;3.30;;;;;;;;;;143739;574;46011;-59
2021/05/20 01:12:12;;;;;;;7.78;3.30;;;;;;;;;;143733;565;47020;-60
2021/05/20 01:14:41;;;;;;;5.47;2.67;;;;;;;;;;143733;578;46012;-60
2021/05/20 01:17:09;;;;;;;6.95;2.53;;;;;;;;;;143740;636;46020;-60
2021/05/20 01:19:41;;;;;;;7.32;3.28;;;;;;;;;;143738;564;45020;-60
2021/05/20 01:22:08;;;;;;;8.20;2.50;;;;;;;;;;143740;641;46020;-60
2021/05/20 01:24:35;;;;;;;6.20;2.70;;;;;;;;;;143732;585;46919;-59
2021/05/20 01:27:04;;;;;;;7.30;2.87;;;;;;;;;;143740;592;46020;-59
2021/05/20 01:29:31;;;;;;;5.70;2.58;;;;;;;;;;143742;566;45020;-60
2021/05/20 01:32:00;;;;;;;8.88;3.30;;;;;;;;;;143738;642;46021;-59
2021/05/20 01:34:27;;;;;;;7.85;2.70;;;;;;;;;;143736;583;46012;-60
2021/05/20 01:36:54;;;;;;;6.28;2.45;;;;;;;;;;143735;573;46020;-59
2021/05/20 01:39:21;;;;;;;5.15;2.60;;;;;;;;;;143737;610;45045;-59
2021/05/20 01:41:48;;;;;;;7.45;2.83;;;;;;;;;;143737;619;46029;-59
2021/05/20 01:44:15;;;;;;;5.32;2.53;;;;;;;;;;143736;631;46012;-59
2021/05/20 01:46:42;;;;;;;6.22;2.42;;;;;;;;;;143737;570;46020;-59
2021/05/20 01:49:11;;;;;;;5.60;2.70;;;;;;;;;;143736;599;45041;-59
2021/05/20 01:51:38;;;;;;;5.03;3.10;;;;;;;;;;143736;571;46020;-59
2021/05/20 01:54:06;;;;;;;5.68;2.72;;;;;;;;;;143734;594;46012;-60
2021/05/20 01:56:40;;;;;;;9.50;3.80;;;;;;;;;;143738;584;46021;-60
2021/05/20 01:59:08;;;;;;;14.37;3.40;;;;;;;;;;143740;587;45020;-59
2021/05/20 02:01:35;;;;;;;7.53;3.05;;;;;;;;;;143734;611;46021;-60
2021/05/20 02:04:02;;;;;;;8.52;3.12;;;;;;;;;;143735;570;46012;-59
2021/05/20 02:06:29;;;;;;;7.15;3.00;;;;;;;;;;143741;672;46020;-59
2021/05/20 02:08:56;;;;;;;6.82;2.87;;;;;;;;;;143739;590;46010;-58
2021/05/20 02:11:23;;;;;;;7.37;3.05;;;;;;;;;;143734;606;46020;-59
2021/05/20 02:13:50;;;;;;;8.18;2.95;;;;;;;;;;143736;588;46012;-59
2021/05/20 02:16:17;;;;;;;5.12;2.80;;;;;;;;;;143732;572;46021;-59
2021/05/20 02:18:44;;;;;;;6.12;2.83;;;;;;;;;;143741;673;46010;-59
2021/05/20 02:21:11;;;;;;;10.48;3.20;;;;;;;;;;143740;592;46020;-59
2021/05/20 02:23:38;;;;;;;7.82;3.10;;;;;;;;;;143732;630;46011;-59
2021/05/20 02:26:05;;;;;;;8.00;3.00;;;;;;;;;;143734;602;46021;-58
2021/05/20 02:28:33;;;;;;;4.97;2.42;;;;;;;;;;143742;574;45020;-59
2021/05/20 02:31:00;;;;;;;5.70;3.20;;;;;;;;;;143735;588;46021;-58
2021/05/20 02:33:27;;;;;;;12.35;3.35;;;;;;;;;;143736;569;46010;-59
2021/05/20 02:35:54;;;;;;;7.75;2.92;;;;;;;;;;143734;570;46020;-59
2021/05/20 02:38:21;;;;;;;10.65;3.15;;;;;;;;;;143742;695;45021;-58
2021/05/20 02:40:48;;;;;;;7.50;3.25;;;;;;;;;;143735;575;46020;-59
2021/05/20 02:43:15;;;;;;;8.52;3.30;;;;;;;;;;143736;696;46010;-58
2021/05/20 02:45:42;;;;;;;7.85;3.00;;;;;;;;;;143737;593;46020;-58
2021/05/20 02:48:09;;;;;;;10.50;3.62;;;;;;;;;;143742;610;46020;-59
2021/05/20 02:50:36;;;;;;;6.37;3.20;;;;;;;;;;143733;583;47018;-59
2021/05/20 02:53:03;;;;;;;6.53;3.28;;;;;;;;;;143732;758;46013;-59
2021/05/20 02:55:30;;;;;;;7.25;3.58;;;;;;;;;;143733;591;46018;-59
2021/05/20 02:58:00;;;;;;;9.27;3.62;;;;;;;;;;143741;628;46022;-59
2021/05/20 03:00:31;;;;;;;7.43;3.67;;;;;;;;;;143736;564;46019;-58
2021/05/20 03:02:58;;;;;;;11.48;3.55;;;;;;;;;;143735;594;46012;-58
2021/05/20 03:05:25;;;;;;;9.90;3.40;;;;;;;;;;143736;592;46020;-59
2021/05/20 03:07:55;;;;;;;9.75;4.07;;;;;;;;;;143737;655;46020;-58
2021/05/20 03:10:23;;;;;;;8.68;2.80;;;;;;;;;;143740;579;46018;-59
2021/05/20 03:12:50;;;;;;;6.18;2.83;;;;;;;;;;143736;576;46012;-59
2021/05/20 03:15:17;;;;;;;11.15;3.60;;;;;;;;;;143734;606;46018;-58
2021/05/20 03:17:44;;;;;;;6.78;2.90;;;;;;;;;;143735;573;46022;-58
2021/05/20 03:20:12;;;;;;;8.15;2.85;;;;;;;;;;143740;589;46018;-59
2021/05/20 03:22:39;;;;;;;7.00;3.67;;;;;;;;;;143735;587;46013;-59
2021/05/20 03:25:07;;;;;;;10.45;4.07;;;;;;;;;;143740;585;46019;-59
2021/05/20 03:27:34;;;;;;;8.15;3.08;;;;;;;;;;143737;573;45022;-59
2021/05/20 03:30:01;;;;;;;16.00;3.92;;;;;;;;;;143736;570;46018;-59
2021/05/20 03:32:29;;;;;;;10.27;3.55;;;;;;;;;;143732;600;46012;-60
2021/05/20 03:34:56;;;;;;;10.50;4.12;;;;;;;;;;143736;600;46018;-59
2021/05/20 03:37:23;;;;;;;8.55;3.78;;;;;;;;;;143735;617;46013;-59
2021/05/20 03:39:50;;;;;;;8.95;3.62;;;;;;;;;;143735;573;46018;-59
2021/05/20 03:42:17;;;;;;;16.42;5.05;;;;;;;;;;143735;642;46012;-59
2021/05/20 03:44:44;;;;;;;9.05;3.60;;;;;;;;;;143733;582;46018;-59
2021/05/20 03:47:11;;;;;;;11.40;3.37;;;;;;;;;;143740;564;46023;-59
2021/05/20 03:49:38;;;;;;;8.32;3.50;;;;;;;;;;143735;569;46018;-60
2021/05/20 03:52:06;;;;;;;10.82;3.35;;;;;;;;;;143736;592;46013;-60
2021/05/20 03:54:33;;;;;;;11.38;4.30;;;;;;;;;;143733;579;46019;-60
2021/05/20 03:57:00;;;;;;;15.63;4.62;;;;;;;;;;143737;565;45031;-61
2021/05/20 03:59:27;;;;;;;14.87;4.45;;;;;;;;;;143735;571;46019;-61
2021/05/20 04:01:54;;;;;;;18.77;4.50;;;;;;;;;;143732;577;46000;-59
2021/05/20 04:04:21;;;;;;;9.60;4.00;;;;;;;;;;143731;653;46018;-60
2021/05/20 04:06:48;;;;;;;9.55;3.53;;;;;;;;;;143736;612;46013;-60
2021/05/20 04:09:16;;;;;;;20.27;5.55;;;;;;;;;;143736;642;46019;-61
2021/05/20 04:11:43;;;;;;;10.65;4.37;;;;;;;;;;143732;566;46012;-60
2021/05/20 04:14:09;;;;;;;15.50;4.50;;;;;;;;;;143734;608;45023;-59
2021/05/20 04:16:36;;;;;;;18.35;4.25;;;;;;;;;;143737;570;46023;-61
2021/05/20 04:19:04;;;;;;;10.00;4.00;;;;;;;;;;143736;644;46018;-60
2021/05/20 04:21:33;;;;;;;9.32;3.25;;;;;;;;;;143731;598;46013;-60
2021/05/20 04:24:00;;;;;;;12.37;4.70;;;;;;;;;;143735;570;46019;-60
2021/05/20 04:26:27;;;;;;;11.95;3.95;;;;;;;;;;143737;621;46022;-61
2021/05/20 04:28:55;;;;;;;12.32;3.40;;;;;;;;;;143734;630;46020;-61
2021/05/20 04:31:22;;;;;;;11.38;4.15;;;;;;;;;;143732;569;46012;-61
2021/05/20 04:33:49;;;;;;;12.20;4.43;;;;;;;;;;143735;625;46018;-61
2021/05/20 04:36:15;;;;;;;16.30;5.05;;;;;;;;;;143737;650;45049;-60
2021/05/20 04:38:43;;;;;;;15.68;3.83;;;;;;;;;;143736;564;46018;-60
2021/05/20 04:41:10;;;;;;;6.55;3.75;;;;;;;;;;143732;711;46012;-60
2021/05/20 04:43:37;;;;;;;13.55;4.32;;;;;;;;;;143740;584;46018;-60
2021/05/20 04:46:04;;;;;;;12.88;4.70;;;;;;;;;;143737;567;45023;-60
2021/05/20 04:48:32;;;;;;;15.50;4.40;;;;;;;;;;143734;617;46020;-59
2021/05/20 04:51:00;;;;;;;6.53;3.80;;;;;;;;;;143732;572;46012;-60
2021/05/20 04:53:27;;;;;;;12.75;4.72;;;;;;;;;;143736;637;46019;-60
2021/05/20 04:55:55;;;;;;;15.13;4.97;;;;;;;;;;143737;714;45026;-59
2021/05/20 04:58:22;;;;;;;24.17;6.55;;;;;;;;;;143735;565;46018;-60
2021/05/20 05:00:49;;;;;;;10.82;4.07;;;;;;;;;;143735;570;46023;-60
2021/05/20 05:03:16;;;;;;;15.38;5.07;;;;;;;;;;143736;599;46018;-59
2021/05/20 05:05:43;;;;;;;10.55;3.85;;;;;;;;;;143738;630;45022;-59
2021/05/20 05:08:10;;;;;;;15.80;4.43;;;;;;;;;;143735;564;47019;-59
2021/05/20 05:10:37;;;;;;;13.93;4.28;;;;;;;;;;143733;564;46012;-60
2021/05/20 05:13:04;;;;;;;15.20;4.28;;;;;;;;;;143737;582;46018;-58
2021/05/20 05:15:32;;;;;;;10.27;3.50;;;;;;;;;;143738;618;46023;-58
2021/05/20 05:17:59;;;;;;;18.83;4.80;;;;;;;;;;143736;640;46018;-59
2021/05/20 05:20:26;;;;;;;8.02;3.12;;;;;;;;;;143730;569;46012;-58
2021/05/20 05:22:53;;;;;;;13.80;3.25;;;;;;;;;;143737;630;46018;-58
2021/05/20 05:25:20;;;;;;;13.85;4.12;;;;;;;;;;143738;575;45022;-58
2021/05/20 05:27:47;;;;;;;14.20;4.75;;;;;;;;;;143736;573;46018;-56
2021/05/20 05:30:14;;;;;;;16.35;4.72;;;;;;;;;;143732;571;46012;-55
2021/05/20 05:32:41;;;;;;;7.85;4.68;;;;;;;;;;143737;569;46018;-55
2021/05/20 05:35:09;;;;;;;13.05;4.50;;;;;;;;;;143740;614;46012;-57
2021/05/20 05:37:36;;;;;;;15.27;3.92;;;;;;;;;;143735;615;46019;-58
2021/05/20 05:40:03;;;;;;;12.32;6.47;;;;;;;;;;143729;564;47022;-56
2021/05/20 05:42:30;;;;;;;13.90;5.25;;;;;;;;;;143731;594;46018;-56
2021/05/20 05:44:57;;;;;;;9.77;4.65;;;;;;;;;;143737;577;46012;-57
2021/05/20 05:47:24;;;;;;;8.63;4.37;;;;;;;;;;143740;574;46018;-57
2021/05/20 05:49:52;;;;;;;16.98;5.57;;;;;;;;;;143733;590;46921;-56
2021/05/20 05:52:22;;;;;;;16.20;7.05;;;;;;;;;;143736;634;46018;-57
2021/05/20 05:54:52;;;;;;;12.50;5.62;;;;;;;;;;143739;637;45023;-57
2021/05/20 05:57:19;;;;;;;18.40;5.65;;;;;;;;;;143735;577;46018;-56
2021/05/20 05:59:48;;;;;;;12.27;5.75;;;;;;;;;;143731;586;46013;-57
2021/05/20 06:02:19;;;;;;;16.77;8.93;;;;;;;;;;143737;637;46018;-58
2021/05/20 06:04:49;;;;;;;9.85;6.57;;;;;;;;;;143737;614;46022;-59
2021/05/20 06:07:17;;;;;;;17.50;7.20;;;;;;;;;;143735;585;46020;-58
2021/05/20 06:09:44;;;;;;;13.32;4.55;;;;;;;;;;143733;590;46012;-58
2021/05/20 06:12:12;;;;;;;13.43;7.37;;;;;;;;;;143733;574;46040;-58
2021/05/20 06:14:42;;;;;;;8.15;4.05;;;;;;;;;;143736;589;46021;-58
2021/05/20 06:17:10;;;;;;;16.30;4.90;;;;;;;;;;143740;597;46020;-58
2021/05/20 06:19:36;;;;;;;12.18;4.18;;;;;;;;;;143733;582;46012;-57
2021/05/20 06:22:03;;;;;;;12.48;6.03;;;;;;;;;;143738;589;45021;-57
2021/05/20 06:24:31;;;;;;;8.63;3.97;;;;;;;;;;143737;580;46012;-57
2021/05/20 06:26:58;;;;;;;11.07;6.82;;;;;;;;;;143737;589;46020;-57
2021/05/20 06:29:25;;;;;;;13.23;6.75;;;;;;;;;;143733;592;46012;-58
2021/05/20 06:31:52;;;;;;;11.25;4.28;;;;;;;;;;143736;566;46021;-58
2021/05/20 06:34:19;;;;;;;15.07;6.28;;;;;;;;;;143738;667;45020;-59
2021/05/20 06:36:46;;;;;;;8.25;5.03;;;;;;;;;;143737;608;46021;-58
2021/05/20 06:39:13;;;;;;;11.38;5.60;;;;;;;;;;143737;608;46012;-59
2021/05/20 06:41:40;;;;;;;16.12;4.40;;;;;;;;;;143734;687;46038;-57
2021/05/20 06:44:07;;;;;;;9.32;3.53;;;;;;;;;;143740;582;45023;-59
2021/05/20 06:46:34;;;;;;;10.25;4.03;;;;;;;;;;143738;708;47018;-59
2021/05/20 06:49:02;;;;;;;10.40;5.43;;;;;;;;;;143734;574;46012;-59
2021/05/20 06:51:30;;;;;;;10.73;4.07;;;;;;;;;;143738;689;46018;-59
2021/05/20 06:53:57;;;;;;;10.73;5.40;;;;;;;;;;143739;592;45033;-59
2021/05/20 06:56:26;;;;;;;8.45;4.45;;;;;;;;;;143738;565;46018;-59
2021/05/20 07:01:44;;;;;;;5.15;3.03;;;;;;;;;;143739;600;45018;-60
2021/05/20 07:04:11;;;;;;;7.12;2.62;;;;;;;;;;143745;669;45022;-59
2021/05/20 07:06:38;;;;;;;13.23;5.12;;;;;;;;;;143743;570;46019;-59
2021/05/20 07:09:05;;;;;;;11.88;4.35;;;;;;;;;;143733;575;46012;-59
2021/05/20 07:11:32;;;;;;;6.55;3.83;;;;;;;;;;143737;589;46018;-58
2021/05/20 07:14:00;;;;;;;12.00;3.75;;;;;;;;;;143744;604;46022;-57
2021/05/20 07:16:27;;;;;;;5.68;3.00;;;;;;;;;;143736;578;47018;-59
2021/05/20 07:18:54;;;;;;;7.45;2.75;;;;;;;;;;143738;569;46012;-59
2021/05/20 07:21:21;;;;;;;8.48;3.30;;;;;;;;;;143735;567;46019;-59
2021/05/20 07:23:48;;;;;;;7.65;3.65;;;;;;;;;;143744;577;45023;-58
2021/05/20 07:26:15;;;;;;;8.77;3.47;;;;;;;;;;143739;646;46018;-58
2021/05/20 07:28:42;;;;;;;9.00;3.33;;;;;;;;;;143738;566;46013;-59
2021/05/20 07:31:09;;;;;;;8.77;4.05;;;;;;;;;;143737;602;46019;-59
2021/05/20 07:33:38;;;;;;;8.68;4.45;;;;;;;;;;143745;657;45022;-58
2021/05/20 07:36:06;;;;;;;7.43;3.78;;;;;;;;;;143738;575;46019;-59
2021/05/20 07:38:33;;;;;;;5.22;2.33;;;;;;;;;;143739;564;46012;-58
2021/05/20 07:41:00;;;;;;;8.05;3.00;;;;;;;;;;143739;593;46012;-58
2021/05/20 07:43:27;;;;;;;7.18;3.50;;;;;;;;;;143744;564;46022;-58
2021/05/20 07:45:54;;;;;;;11.25;3.42;;;;;;;;;;143737;583;46018;-59
2021/05/20 07:48:21;;;;;;;9.25;3.55;;;;;;;;;;143735;630;46012;-58
2021/05/20 07:50:48;;;;;;;5.70;3.00;;;;;;;;;;143738;597;46019;-60
2021/05/20 07:53:15;;;;;;;17.62;3.47;;;;;;;;;;143746;580;45023;-58
2021/05/20 07:55:42;;;;;;;13.20;3.00;;;;;;;;;;143738;564;46018;-59
2021/05/20 07:58:09;;;;;;;5.37;2.42;;;;;;;;;;143736;674;45923;-58
2021/05/20 08:00:36;;;;;;;6.37;2.40;;;;;;;;;;143737;612;46010;-58
2021/05/20 08:06:14;;;;;;;6.82;2.72;;;;;;;;;;143737;582;45022;-58
2021/05/20 08:11:37;;;;;;;6.72;2.47;;;;;;;;;;143737;674;46018;-59
2021/05/20 08:14:04;;;;;;;6.00;2.50;;;;;;;;;;143742;590;46023;-59
2021/05/20 08:16:31;;;;;;;6.68;2.20;;;;;;;;;;143740;566;46018;-59
2021/05/20 08:18:59;;;;;;;10.85;3.90;;;;;;;;;;143738;564;46012;-58
2021/05/20 08:21:26;;;;;;;13.98;3.37;;;;;;;;;;143736;610;46019;-58
2021/05/20 08:23:54;;;;;;;4.78;2.37;;;;;;;;;;143740;624;46022;-59
2021/05/20 08:26:24;;;;;;;6.95;2.53;;;;;;;;;;143738;595;46018;-60
2021/05/20 08:28:53;;;;;;;8.15;2.58;;;;;;;;;;143737;605;46012;-60
2021/05/20 08:31:20;;;;;;;8.60;2.28;;;;;;;;;;143742;683;46018;-58
2021/05/20 08:33:47;;;;;;;15.80;3.28;;;;;;;;;;143744;587;45022;-59
2021/05/20 08:36:14;;;;;;;10.43;2.70;;;;;;;;;;143738;579;46018;-59
2021/05/20 08:38:42;;;;;;;6.70;3.00;;;;;;;;;;143733;564;46012;-58
2021/05/20 08:41:09;;;;;;;6.87;2.75;;;;;;;;;;143742;575;46018;-59
2021/05/20 08:43:37;;;;;;;5.85;2.55;;;;;;;;;;143742;601;46023;-58
2021/05/20 08:46:05;;;;;;;7.68;3.17;;;;;;;;;;143739;705;46018;-58
2021/05/20 08:48:32;;;;;;;4.53;2.42;;;;;;;;;;143737;570;46012;-59
2021/05/20 08:51:01;;;;;;;8.15;3.10;;;;;;;;;;143737;590;46019;-59
2021/05/20 08:53:28;;;;;;;9.40;3.70;;;;;;;;;;143743;629;45052;-59
2021/05/20 08:55:55;;;;;;;8.13;2.83;;;;;;;;;;143739;564;47018;-59
2021/05/20 08:58:25;;;;;;;9.85;2.80;;;;;;;;;;143738;577;46010;-59
2021/05/20 09:00:53;;;;;;;10.65;3.00;;;;;;;;;;143735;633;46018;-58
2021/05/20 09:03:21;;;;;;;8.27;3.22;;;;;;;;;;143737;569;46022;-59
2021/05/20 09:05:49;;;;;;;7.40;2.47;;;;;;;;;;143740;566;46020;-58
2021/05/20 09:08:20;;;;;;;6.00;2.60;;;;;;;;;;143738;588;46010;-58
2021/05/20 09:10:48;;;;;;;7.05;2.25;;;;;;;;;;143741;572;45021;-59
2021/05/20 09:13:20;;;;;;;8.77;2.90;;;;;;;;;;143742;586;45996;-59
2021/05/20 09:15:51;;;;;;;9.90;2.65;;;;;;;;;;143736;579;46020;-60
2021/05/20 09:18:29;;;;;;;7.93;3.03;;;;;;;;;;143736;594;46010;-60
2021/05/20 09:20:58;;;;;;;6.18;2.87;;;;;;;;;;143741;590;46019;-60
2021/05/20 09:23:27;;;;;;;11.05;3.15;;;;;;;;;;143739;565;46012;-59
2021/05/20 09:26:09;;;;;;;6.60;2.83;;;;;;;;;;143737;622;46020;-59
2021/05/20 09:28:40;;;;;;;11.40;3.10;;;;;;;;;;143737;588;46012;-60
2021/05/20 09:31:08;;;;;;;11.18;2.65;;;;;;;;;;143734;571;46020;-60
2021/05/20 09:33:35;;;;;;;5.70;2.47;;;;;;;;;;143739;564;46020;-61
2021/05/20 09:36:03;;;;;;;7.05;2.28;;;;;;;;;;143738;600;46021;-61
2021/05/20 09:38:30;;;;;;;6.70;2.10;;;;;;;;;;143738;629;46012;-60
2021/05/20 09:41:01;;;;;;;7.30;2.50;;;;;;;;;;143740;627;46020;-60
2021/05/20 09:43:39;;;;;;;5.60;2.45;;;;;;;;;;143744;589;45021;-60
2021/05/20 09:46:13;;;;;;;7.35;2.72;;;;;;;;;;143739;588;46020;-61
2021/05/20 09:48:42;;;;;;;5.68;2.85;;;;;;;;;;143737;603;46012;-60
2021/05/20 09:51:25;;;;;;;8.55;2.75;;;;;;;;;;143736;569;46021;-58
2021/05/20 09:53:53;;;;;;;6.50;2.75;;;;;;;;;;143740;592;45034;-59
2021/05/20 09:56:41;;;;;;;15.90;2.92;;;;;;;;;;143738;608;47010;-58
2021/05/20 09:59:15;;;;;;;11.18;2.25;;;;;;;;;;143734;585;46010;-59
2021/05/20 10:01:43;;;;;;;8.85;2.47;;;;;;;;;;143736;611;46020;-59
2021/05/20 10:04:27;;;;;;;11.07;3.08;;;;;;;;;;143741;581;49013;-59
2021/05/20 10:06:56;;;;;;;8.68;2.97;;;;;;;;;;143737;608;47034;-58
2021/05/20 10:09:24;;;;;;;5.00;2.08;;;;;;;;;;143736;636;48010;-58
2021/05/20 10:11:51;;;;;;;5.95;2.28;;;;;;;;;;143742;590;46021;-58
2021/05/20 10:14:18;;;;;;;6.72;2.12;;;;;;;;;;143743;587;45020;-58
2021/05/20 10:16:49;;;;;;;5.82;2.60;;;;;;;;;;143737;610;46020;-58
2021/05/20 10:19:18;;;;;;;5.93;2.55;;;;;;;;;;143736;565;48010;-60
2021/05/20 10:21:46;;;;;;;5.37;3.25;;;;;;;;;;143739;569;46021;-61
2021/05/20 10:24:13;;;;;;;5.82;2.80;;;;;;;;;;143736;604;46020;-60
2021/05/20 10:26:40;;;;;;;5.87;2.30;;;;;;;;;;143740;575;46022;-58
2021/05/20 10:29:07;;;;;;;4.78;2.25;;;;;;;;;;143732;587;47020;-58
2021/05/20 10:31:34;;;;;;;12.48;3.00;;;;;;;;;;143737;579;46020;-58
2021/05/20 10:34:05;;;;;;;7.50;2.72;;;;;;;;;;143739;577;45043;-58
2021/05/20 10:36:33;;;;;;;6.47;3.45;;;;;;;;;;143741;581;46023;-59
2021/05/20 10:39:19;;;;;;;7.85;3.17;;;;;;;;;;143739;569;46010;-59
2021/05/20 10:41:46;;;;;;;7.12;2.47;;;;;;;;;;143737;569;46020;-60
2021/05/20 10:44:14;;;;;;;10.60;2.70;;;;;;;;;;143744;588;45021;-60
2021/05/20 10:47:04;;;;;;;8.88;2.62;;;;;;;;;;143737;572;46020;-60
2021/05/20 10:50:01;;;;;;;5.40;2.72;;;;;;;;;;143737;602;46012;-59
2021/05/20 10:52:42;;;;;;;5.50;2.25;;;;;;;;;;143740;580;46020;-59
2021/05/20 10:55:11;;;;;;;5.93;2.12;;;;;;;;;;143739;586;46020;-59
2021/05/20 10:58:03;;;;;;;4.12;2.17;;;;;;;;;;143738;622;47014;-58
2021/05/20 11:00:40;;;;;;;6.68;2.10;;;;;;;;;;143737;569;48012;-59
2021/05/20 11:03:09;;;;;;;5.65;2.20;;;;;;;;;;143743;598;46020;-59
2021/05/20 11:06:01;;;;;;;11.48;3.10;;;;;;;;;;143744;618;46020;-58
2021/05/20 11:08:51;;;;;;;7.65;2.58;;;;;;;;;;143738;593;46020;-58
2021/05/20 11:11:50;;;;;;;5.90;2.45;;;;;;;;;;143739;580;46013;-59
2021/05/20 11:14:37;;;;;;;5.47;2.17;;;;;;;;;;143739;589;46021;-59
2021/05/20 11:17:30;;;;;;;6.75;3.65;;;;;;;;;;143738;650;46012;-59
2021/05/20 11:20:31;;;;;;;7.10;3.97;;;;;;;;;;143740;582;46021;-59
2021/05/20 11:23:36;;;;;;;5.47;2.08;;;;;;;;;;143734;640;46012;-58
2021/05/20 11:26:07;;;;;;;9.73;2.65;;;;;;;;;;143738;572;46020;-60
2021/05/20 11:28:44;;;;;;;12.02;2.60;;;;;;;;;;143743;645;45021;-60
2021/05/20 11:31:12;;;;;;;4.72;2.50;;;;;;;;;;143732;635;46036;-59
2021/05/20 11:33:50;;;;;;;7.75;2.42;;;;;;;;;;143735;580;46011;-58
2021/05/20 11:36:18;;;;;;;8.63;2.65;;;;;;;;;;143735;564;46021;-59
2021/05/20 11:39:00;;;;;;;6.28;2.33;;;;;;;;;;143739;611;45020;-58
2021/05/20 11:41:27;;;;;;;12.82;3.22;;;;;;;;;;143736;731;46021;-59
2021/05/20 11:44:23;;;;;;;12.80;3.58;;;;;;;;;;143732;569;46010;-59
2021/05/20 11:47:08;;;;;;;6.65;2.20;;;;;;;;;;143734;675;46020;-59
2021/05/20 11:49:36;;;;;;;5.18;2.55;;;;;;;;;;143742;569;46020;-58
2021/05/20 11:52:09;;;;;;;6.18;2.53;;;;;;;;;;143733;594;46020;-61
2021/05/20 11:54:41;;;;;;;7.32;3.20;;;;;;;;;;143736;566;46010;-60
2021/05/20 11:57:09;;;;;;;4.57;2.10;;;;;;;;;;143739;579;46021;-59
2021/05/20 11:59:42;;;;;;;10.00;2.83;;;;;;;;;;143742;614;45020;-59
2021/05/20 12:02:26;;;;;;;5.80;2.15;;;;;;;;;;143737;665;46020;-59
2021/05/20 12:05:06;;;;;;;8.07;2.12;;;;;;;;;;143733;630;47021;-59
2021/05/20 12:07:34;;;;;;;5.32;1.73;;;;;;;;;;143739;638;46018;-59
2021/05/20 12:10:14;;;;;;;5.25;2.33;;;;;;;;;;143734;595;46022;-59
2021/05/20 12:13:00;;;;;;;3.65;1.80;;;;;;;;;;143736;612;46018;-58
2021/05/20 12:15:29;;;;;;;6.35;2.15;;;;;;;;;;143736;617;46010;-58
2021/05/20 12:18:00;;;;;;;10.30;3.17;;;;;;;;;;143734;629;46018;-60
2021/05/20 12:20:29;;;;;;;17.98;3.20;;;;;;;;;;143738;646;45023;-59
2021/05/20 12:22:56;;;;;;;10.40;3.28;;;;;;;;;;143734;574;46027;-60
2021/05/20 12:25:26;;;;;;;8.43;2.40;;;;;;;;;;143732;626;46011;-59
2021/05/20 12:27:55;;;;;;;9.27;2.85;;;;;;;;;;143733;569;46019;-60
2021/05/20 12:30:27;;;;;;;3.78;2.12;;;;;;;;;;143737;634;46022;-59
2021/05/20 12:33:13;;;;;;;9.98;2.60;;;;;;;;;;143738;587;46019;-60
2021/05/20 12:35:44;;;;;;;7.12;2.75;;;;;;;;;;143731;617;46010;-60
2021/05/20 12:38:21;;;;;;;3.62;1.73;;;;;;;;;;143741;609;46018;-59
2021/05/20 12:40:57;;;;;;;5.55;2.30;;;;;;;;;;143741;574;45023;-59
2021/05/20 12:43:31;;;;;;;6.32;2.28;;;;;;;;;;143736;625;46018;-60
2021/05/20 12:46:17;;;;;;;7.50;2.78;;;;;;;;;;143736;564;46010;-60
2021/05/20 12:48:57;;;;;;;9.07;2.22;;;;;;;;;;143738;583;46018;-59
2021/05/20 12:51:25;;;;;;;5.28;2.45;;;;;;;;;;143740;564;46022;-61
2021/05/20 12:53:58;;;;;;;4.78;1.95;;;;;;;;;;143737;727;46018;-59
2021/05/20 12:56:44;;;;;;;8.80;2.72;;;;;;;;;;143731;721;46024;-60
2021/05/20 12:59:15;;;;;;;4.28;2.05;;;;;;;;;;143737;571;46018;-60
2021/05/20 13:01:50;;;;;;;7.62;2.15;;;;;;;;;;143735;651;46022;-61
2021/05/20 13:04:34;;;;;;;4.80;2.30;;;;;;;;;;143737;589;46019;-59
2021/05/20 13:07:01;;;;;;;;;;;;;;;;;;143736;977;46010;-59
2021/05/20 13:09:42;;;;;;;5.70;2.28;;;;;;;;;;143746;577;46018;-59
2021/05/20 13:12:21;;;;;;;8.63;2.42;;;;;;;;;;143736;569;46022;-60
2021/05/20 13:15:02;;;;;;;8.88;3.00;;;;;;;;;;143734;582;46020;-60
2021/05/20 13:23:29;;;;;;;4.37;1.65;;;;;;;;;;143743;569;46022;-60
2021/05/20 13:25:56;;;;;;;7.62;2.10;;;;;;;;;;143733;571;46019;-60
2021/05/20 13:28:25;;;;;;;4.72;2.17;;;;;;;;;;143737;609;46010;-58
2021/05/20 13:33:41;;;;;;;9.13;2.75;;;;;;;;;;143739;650;46010;-59
2021/05/20 13:36:10;;;;;;;6.32;2.50;;;;;;;;;;143738;575;46021;-59
2021/05/20 13:38:37;;;;;;;5.87;2.50;;;;;;;;;;143737;634;46010;-59
2021/05/20 13:41:04;;;;;;;4.18;1.87;;;;;;;;;;143738;571;46019;-58
2021/05/20 13:43:32;;;;;;;9.73;2.60;;;;;;;;;;143742;594;45023;-58
2021/05/20 13:45:59;;;;;;;13.65;3.67;;;;;;;;;;143734;603;45034;-58
2021/05/20 13:48:28;;;;;;;6.30;2.40;;;;;;;;;;143732;583;46010;-59
2021/05/20 13:50:55;;;;;;;7.07;2.75;;;;;;;;;;143738;564;46018;-59
2021/05/20 13:53:22;;;;;;;9.10;2.62;;;;;;;;;;143742;605;46010;-60
2021/05/20 13:55:51;;;;;;;6.32;2.90;;;;;;;;;;143738;593;47019;-60
2021/05/20 13:58:18;;;;;;;11.90;2.78;;;;;;;;;;143737;581;46010;-60
2021/05/20 14:00:47;;;;;;;4.53;2.10;;;;;;;;;;143735;623;46018;-61
2021/05/20 14:03:16;;;;;;;8.45;2.50;;;;;;;;;;143743;574;45052;-59
2021/05/20 14:05:43;;;;;;;6.35;1.98;;;;;;;;;;143735;689;46018;-59
2021/05/20 14:08:10;;;;;;;4.18;1.85;;;;;;;;;;143737;625;46010;-59
2021/05/20 14:10:38;;;;;;;9.07;2.15;;;;;;;;;;143736;592;45019;-60
2021/05/20 14:13:05;;;;;;;7.95;2.55;;;;;;;;;;143743;621;45023;-59
2021/05/20 14:15:32;;;;;;;6.57;2.33;;;;;;;;;;143741;606;46018;-59
2021/05/20 14:17:59;;;;;;;4.95;2.28;;;;;;;;;;143736;586;46010;-59
2021/05/20 14:20:29;;;;;;;7.05;2.62;;;;;;;;;;143737;594;46019;-59
2021/05/20 14:22:56;;;;;;;5.60;2.17;;;;;;;;;;143743;652;46022;-59
2021/05/20 14:25:25;;;;;;;7.68;2.10;;;;;;;;;;143736;574;47018;-60
2021/05/20 14:27:52;;;;;;;7.12;2.60;;;;;;;;;;143737;567;46010;-59
2021/05/20 14:30:19;;;;;;;7.28;2.70;;;;;;;;;;143740;603;46018;-59
2021/05/20 14:32:46;;;;;;;6.18;2.47;;;;;;;;;;143739;685;46023;-59
2021/05/20 14:35:13;;;;;;;4.87;1.77;;;;;;;;;;143735;589;46018;-59
2021/05/20 14:37:40;;;;;;;10.38;2.72;;;;;;;;;;143736;606;46010;-59
2021/05/20 14:40:08;;;;;;;8.75;2.28;;;;;;;;;;143736;617;46017;-59
2021/05/20 14:42:35;;;;;;;6.10;2.10;;;;;;;;;;143740;585;45023;-59
2021/05/20 14:45:03;;;;;;;6.20;2.08;;;;;;;;;;143740;565;46018;-59
2021/05/20 14:47:33;;;;;;;6.20;2.30;;;;;;;;;;143737;581;46011;-59
2021/05/20 14:50:02;;;;;;;11.55;3.00;;;;;;;;;;143738;604;46019;-60
2021/05/20 14:52:33;;;;;;;5.47;2.70;;;;;;;;;;143737;565;45022;-59
2021/05/20 14:55:20;;;;;;;2.67;1.55;;;;;;;;;;143739;669;46020;-60
2021/05/20 15:06:16;;;;;;;6.62;2.08;;;;;;;;;;143740;613;46018;-60
2021/05/20 15:08:45;;;;;;;;;;;;;;;;;;143742;978;46010;-59
2021/05/20 15:11:20;;;;;;;6.78;2.35;;;;;;;;;;143746;572;45019;-60
2021/05/20 15:14:07;;;;;;;5.90;2.65;;;;;;;;;;143738;569;46022;-59
2021/05/20 15:16:46;;;;;;;7.35;2.55;;;;;;;;;;143735;694;46019;-60
2021/05/20 15:19:13;;;;;;;4.05;2.15;;;;;;;;;;143735;566;46010;-60
2021/05/20 15:21:39;;;;;;;3.65;1.98;;;;;;;;;;143737;564;46018;-59